| Record Date MM/DD/YYYY | Record Time HH:MM:SS | Record Julian Date NNN day of the year | Air Temperature Max (Degrees Fahrenheit F) | Time Max Air Temperature HH:MM:SS This is the time of max air temp for the prior hour interval listed for record [Time]. | Air Temperature Min (Degrees Fahrenheit F) | Time Min Air Temperature HH:MM:SS This is the time of min air temp for the prior hour interval listed for record [Time]. | Air Temperature Observed (Degrees Fahrenheit F) This is an instantaneous reading at the record [Time]. | Relative Humidity Max (Percent) | Time Max Relative Humidity HH:MM:SS This is the time of max relative humidity for the prior hour interval listed for record [Time]. | Relative Humidity Min (Percent) | Time Min Relative Humidity HH:MM:SS This is the time of min relative humidity for the prior hour interval listed for record [Time]. | Relative Humidity Observed (Percent) This is an instantaneous reading at the record [Time]. | Precipitation (Inches n.nn) rain fall that occurred during the prior hour interval listed for record [Time]. | Wind Speed (Miles Per Hour) Resultant Speed that occurred during the prior hour interval listed for record [Time]. | Wind Direction (Degrees) Resultant Direction that occurred during the prior hour interval listed for record [Time]. | Solar Radiation (Langley's) that occurred during the prior hour interval listed for record [Time]. | Soil Temperature Average at 2 inch depth (Degrees Fahrenheit F) that occurred during the prior hour interval listed for record [Time]. | Soil Temperature Observed at 2 inch depth (Degrees Fahrenheit F) This is an instantaneous reading at the record [Time]. | Soil Temperature Average at 4 inch depth (Degrees Fahrenheit F) that occurred during the prior hour interval listed for record [Time]. | Soil Temperature Observed at 4 inch depth (Degrees Fahrenheit F) This is an instantaneous reading at the record [Time]. |
|---|---|---|---|---|---|---|---|---|---|---|---|---|---|---|---|---|---|---|---|---|
| 08/24/2026 | 0:00:00 | 236 | 70 | 23:00:01 | 70 | 23:59:02 | 70 | 98 | 23:14:03 | 97 | 23:28:04 | 97.3 | 0 | |||||||
| 08/24/2026 | 1:00:00 | 236 | 70 | 0:07:01 | 69 | 0:42:04 | 69 | 98 | 0:51:01 | 97 | 0:29:05 | 98.2 | 0 | |||||||
| 08/24/2026 | 2:00:00 | 236 | 70 | 1:58:00 | 69 | 1:00:01 | 70 | 98 | 1:46:02 | 98 | 2:00:00 | 97.7 | 0 | |||||||
| 08/24/2026 | 3:00:00 | 236 | 70 | 2:12:00 | 70 | 2:59:05 | 70 | 98 | 2:11:02 | 96 | 3:00:00 | 95.9 | 0 | |||||||
| 08/24/2026 | 4:00:00 | 236 | 70 | 3:57:05 | 69 | 3:25:02 | 70 | 98 | 3:32:01 | 96 | 3:00:05 | 97.1 | 0 | |||||||
| 08/24/2026 | 5:00:00 | 236 | 70 | 4:47:00 | 70 | 4:01:00 | 70 | 97 | 4:00:01 | 96 | 4:55:03 | 96.2 | 0 | |||||||
| 08/24/2026 | 6:00:00 | 236 | 70 | 5:58:05 | 70 | 5:04:01 | 70 | 97 | 5:42:03 | 96 | 5:03:05 | 96.6 | 0 | |||||||
| 08/24/2026 | 7:00:00 | 236 | 74 | 7:00:00 | 70 | 6:00:01 | 74 | 97 | 6:01:03 | 83 | 6:57:05 | 84.5 | 0 | |||||||
| 08/24/2026 | 8:00:00 | 236 | 82 | 7:59:04 | 74 | 7:00:03 | 82 | 85 | 7:03:02 | 66 | 7:51:03 | 65.95 | 0 | |||||||
| 08/24/2026 | 9:00:00 | 236 | 87 | 8:56:00 | 82 | 8:00:01 | 86 | 68 | 8:00:02 | 56 | 8:56:02 | 59.33 | 0 | |||||||
| 08/24/2026 | 10:00:00 | 236 | 90 | 9:51:04 | 86 | 9:01:03 | 89 | 62 | 9:16:04 | 48 | 9:57:03 | 49.52 | 0 | |||||||
| 08/24/2026 | 11:00:00 | 236 | 92 | 10:58:05 | 89 | 10:02:00 | 91 | 55 | 10:14:03 | 47 | 10:00:03 | 48.37 | 0 | |||||||
| 08/24/2026 | 12:00:00 | 236 | 94 | 11:30:03 | 91 | 11:00:01 | 93 | 52 | 11:50:05 | 43 | 11:32:05 | 44.86 | 0 | |||||||
| 08/24/2026 | 13:00:00 | 236 | 94 | 12:55:01 | 92 | 12:38:02 | 94 | 49 | 12:14:00 | 42 | 12:25:00 | 44.21 | 0 | |||||||
| 08/24/2026 | 14:00:00 | 236 | 96 | 13:54:05 | 93 | 13:17:02 | 96 | 51 | 13:02:01 | 40 | 13:55:02 | 43.04 | 0 | |||||||
| 08/24/2026 | 15:00:00 | 236 | 97 | 14:41:00 | 94 | 14:06:05 | 96 | 48 | 14:22:01 | 39 | 14:42:01 | 39.45 | 0 | |||||||
| 08/24/2026 | 16:00:00 | 236 | 97 | 15:01:02 | 95 | 15:23:01 | 95 | 47 | 15:23:05 | 39 | 15:01:03 | 44.97 | 0 | |||||||
| 08/24/2026 | 17:00:00 | 236 | 96 | 16:11:05 | 91 | 17:00:00 | 91 | 56 | 16:59:03 | 41 | 16:12:03 | 55.56 | 0 | |||||||
| 08/24/2026 | 18:00:00 | 236 | 93 | 17:16:04 | 88 | 17:59:03 | 88 | 63 | 17:58:02 | 55 | 17:22:04 | 62.51 | 0 | |||||||
| 08/24/2026 | 19:00:00 | 236 | 88 | 18:00:01 | 80 | 18:59:05 | 80 | 84 | 19:00:00 | 62 | 18:00:01 | 83.6 | 0 | |||||||
| 08/24/2026 | 20:00:00 | 236 | 80 | 19:00:02 | 77 | 19:59:02 | 77 | 92 | 20:00:00 | 84 | 19:00:01 | 92 | 0 | |||||||
| 08/24/2026 | 21:00:00 | 236 | 77 | 20:00:02 | 75 | 20:59:03 | 75 | 95 | 20:59:05 | 92 | 20:00:01 | 95 | 0 | |||||||
| 08/24/2026 | 22:00:00 | 236 | 75 | 21:00:01 | 74 | 21:38:02 | 74 | 97 | 21:51:00 | 95 | 21:00:01 | 96.9 | 0 | |||||||
| 08/24/2026 | 23:00:00 | 236 | 74 | 22:00:01 | 74 | 22:52:00 | 74 | 98 | 23:00:00 | 97 | 22:01:01 | 98.3 | 0 | |||||||
| 08/25/2026 | 0:00:00 | 237 | 76 | 23:42:02 | 74 | 23:04:05 | 75 | 99 | 23:17:04 | 88 | 23:44:02 | 89.8 | 0 | |||||||
| 08/25/2026 | 1:00:00 | 237 | 75 | 0:00:04 | 72 | 0:59:03 | 72 | 97 | 0:50:03 | 90 | 0:00:01 | 96.1 | 0 | |||||||
| 08/25/2026 | 2:00:00 | 237 | 73 | 1:51:02 | 72 | 1:24:05 | 72 | 97 | 1:50:02 | 96 | 1:00:01 | 96.8 | 0 | |||||||
| 08/25/2026 | 3:00:00 | 237 | 72 | 2:12:03 | 72 | 2:49:00 | 72 | 97 | 2:13:04 | 96 | 2:49:00 | 96.8 | 0 | |||||||
| 08/25/2026 | 4:00:00 | 237 | 72 | 3:01:03 | 71 | 3:59:04 | 71 | 98 | 3:49:02 | 97 | 3:00:01 | 97.6 | 0 | |||||||
| 08/25/2026 | 5:00:00 | 237 | 72 | 4:04:03 | 71 | 4:42:03 | 71 | 98 | 4:58:02 | 97 | 4:20:05 | 97.7 | 0 | |||||||
| 08/25/2026 | 6:00:00 | 237 | 72 | 5:58:03 | 71 | 5:00:02 | 72 | 98 | 5:06:03 | 96 | 5:29:00 | 97 | 0 | |||||||
| 08/25/2026 | 7:00:00 | 237 | 80 | 6:57:04 | 72 | 6:00:04 | 80 | 97 | 6:00:01 | 68 | 6:59:01 | 69.11 | 0 | |||||||
| 08/25/2026 | 8:00:00 | 237 | 85 | 7:59:03 | 80 | 7:00:04 | 85 | 71 | 7:03:00 | 62 | 7:59:03 | 63.53 | 0 | |||||||
| 08/25/2026 | 9:00:00 | 237 | 89 | 8:59:05 | 84 | 8:06:03 | 89 | 66 | 8:57:03 | 59 | 8:48:03 | 62.23 | 0 | |||||||
| 08/25/2026 | 10:00:00 | 237 | 92 | 9:22:05 | 87 | 9:12:02 | 88 | 69 | 9:16:00 | 57 | 9:23:00 | 64.82 | 0 | |||||||
| 08/25/2026 | 11:00:00 | 237 | 91 | 10:59:00 | 88 | 10:02:04 | 91 | 67 | 10:28:05 | 62 | 10:59:01 | 63.74 | 0 | |||||||
| 08/25/2026 | 12:00:00 | 237 | 93 | 11:54:03 | 90 | 11:30:01 | 92 | 68 | 11:45:05 | 60 | 11:05:01 | 63.09 | 0 | |||||||
| 08/25/2026 | 13:00:00 | 237 | 95 | 12:57:02 | 92 | 12:00:03 | 94 | 65 | 12:01:03 | 54 | 12:58:01 | 57.77 | 0 | |||||||
| 08/25/2026 | 14:00:00 | 237 | 97 | 13:45:01 | 94 | 13:17:02 | 96 | 59 | 13:04:00 | 51 | 13:47:05 | 52.11 | 0 | |||||||
| 08/25/2026 | 15:00:00 | 237 | 97 | 14:48:00 | 95 | 15:00:00 | 95 | 55 | 14:12:01 | 47 | 14:49:04 | 50.39 | 0 | |||||||
| 08/25/2026 | 16:00:00 | 237 | 98 | 15:13:01 | 95 | 15:51:00 | 96 | 55 | 15:55:01 | 46 | 15:11:00 | 53.05 | 0 | |||||||
| 08/25/2026 | 17:00:00 | 237 | 97 | 16:08:00 | 94 | 16:38:02 | 96 | 56 | 16:41:05 | 50 | 16:03:05 | 51.6 | 0 | |||||||
| 08/25/2026 | 18:00:00 | 237 | 96 | 17:00:02 | 90 | 18:00:00 | 90 | 66 | 17:59:05 | 51 | 17:01:02 | 65.98 | 0 | |||||||
| 08/25/2026 | 19:00:00 | 237 | 90 | 18:00:02 | 81 | 19:00:00 | 81 | 88 | 19:00:00 | 66 | 18:00:01 | 87.5 | 0 | |||||||
| 08/25/2026 | 20:00:00 | 237 | 81 | 19:00:01 | 78 | 20:00:00 | 78 | 94 | 19:59:04 | 88 | 19:00:01 | 93.9 | 0 | |||||||
| 08/25/2026 | 21:00:00 | 237 | 78 | 20:00:01 | 77 | 20:58:04 | 77 | 96 | 21:00:00 | 94 | 20:00:01 | 96.3 | 0 | |||||||
| 08/25/2026 | 22:00:00 | 237 | 77 | 21:19:05 | 77 | 21:00:05 | 77 | 97 | 21:10:03 | 96 | 21:00:05 | 97.1 | 0 | |||||||
| 08/25/2026 | 23:00:00 | 237 | 77 | 22:04:03 | 76 | 22:54:00 | 76 | 98 | 22:58:05 | 97 | 22:18:00 | 98.1 | 0 | |||||||
| 08/26/2026 | 0:00:00 | 238 | 77 | 23:21:05 | 76 | 23:03:02 | 77 | 98 | 23:09:01 | 98 | 23:29:02 | 98.3 | 0 | |||||||
| 08/26/2026 | 1:00:00 | 238 | 77 | 0:20:05 | 76 | 1:00:00 | 76 | 99 | 0:11:02 | 98 | 0:30:02 | 98.3 | 0 | |||||||
| 08/26/2026 | 2:00:00 | 238 | 76 | 1:00:01 | 75 | 1:56:03 | 75 | 99 | 2:00:00 | 98 | 1:00:02 | 99.3 | 0 | |||||||
| 08/26/2026 | 3:00:00 | 238 | 75 | 2:00:05 | 74 | 2:25:03 | 74 | 100 | 2:53:01 | 99 | 2:06:03 | 99.6 | 0 | |||||||
| 08/26/2026 | 4:00:00 | 238 | 74 | 3:58:03 | 74 | 3:20:00 | 74 | 100 | 3:58:00 | 100 | 3:01:01 | 99.9 | 0 | |||||||
| 08/26/2026 | 5:00:00 | 238 | 74 | 4:00:02 | 73 | 4:45:04 | 73 | 100 | 4:54:03 | 100 | 4:34:03 | 99.9 | 0 | |||||||
| 08/26/2026 | 6:00:00 | 238 | 74 | 6:00:00 | 73 | 5:03:05 | 74 | 100 | 5:08:04 | 100 | 5:04:00 | 100 | 0 | |||||||
| 08/26/2026 | 7:00:00 | 238 | 82 | 6:59:04 | 74 | 6:00:05 | 82 | 100 | 6:00:01 | 88 | 6:58:03 | 88.7 | 0 | |||||||
| 08/26/2026 | 8:00:00 | 238 | 85 | 7:57:02 | 81 | 7:02:00 | 85 | 89 | 7:00:01 | 79 | 7:58:04 | 79.71 | 0 | |||||||
| 08/26/2026 | 9:00:00 | 238 | 88 | 8:51:04 | 85 | 8:00:01 | 87 | 81 | 8:05:00 | 74 | 8:54:00 | 75.25 | 0 | |||||||
| 08/26/2026 | 10:00:00 | 238 | 91 | 9:59:00 | 87 | 9:01:04 | 91 | 77 | 9:11:05 | 63 | 9:59:01 | 64.16 | 0 | |||||||
| 08/26/2026 | 11:00:00 | 238 | 94 | 10:41:04 | 91 | 10:00:04 | 93 | 69 | 10:03:03 | 57 | 10:42:02 | 60.02 | 0 | |||||||
| 08/26/2026 | 12:00:00 | 238 | 95 | 12:00:00 | 92 | 11:26:04 | 95 | 63 | 11:40:05 | 57 | 12:00:00 | 57.31 | 0 | |||||||
| 08/26/2026 | 13:00:00 | 238 | 97 | 12:19:01 | 87 | 12:34:03 | 89 | 73 | 12:35:02 | 55 | 12:02:03 | 66.79 | 0 | |||||||
| 08/26/2026 | 14:00:00 | 238 | 92 | 13:54:03 | 88 | 13:10:03 | 91 | 70 | 13:10:04 | 63 | 13:55:03 | 64.91 | 0 | |||||||
| 08/26/2026 | 15:00:00 | 238 | 93 | 14:42:00 | 89 | 15:00:00 | 89 | 68 | 14:58:01 | 60 | 14:43:01 | 68.41 | 0 | |||||||
| 08/26/2026 | 16:00:00 | 238 | 89 | 15:00:01 | 88 | 15:59:04 | 88 | 72 | 15:58:04 | 66 | 15:35:04 | 71.86 | 0 | |||||||
| 08/26/2026 | 17:00:00 | 238 | 88 | 16:07:01 | 86 | 16:53:05 | 86 | 75 | 16:56:03 | 71 | 16:00:04 | 74.84 | 0 | |||||||
| 08/26/2026 | 18:00:00 | 238 | 87 | 17:00:01 | 83 | 17:59:04 | 83 | 81 | 17:56:04 | 74 | 17:03:02 | 80.3 | 0 | |||||||
| 08/26/2026 | 19:00:00 | 238 | 83 | 18:00:01 | 82 | 18:57:03 | 82 | 85 | 19:00:00 | 80 | 18:01:04 | 84.8 | 0 | |||||||
| 08/26/2026 | 20:00:00 | 238 | 82 | 19:00:01 | 80 | 20:00:00 | 80 | 87 | 19:20:05 | 81 | 19:47:01 | 82.7 | 0 | |||||||
| 08/26/2026 | 21:00:00 | 238 | 80 | 20:00:01 | 78 | 21:00:00 | 78 | 85 | 21:00:00 | 83 | 20:36:00 | 84.8 | 0 | |||||||
| 08/26/2026 | 22:00:00 | 238 | 78 | 21:00:01 | 76 | 21:59:01 | 76 | 91 | 22:00:00 | 85 | 21:00:02 | 91.3 | 0 | |||||||
| 08/26/2026 | 23:00:00 | 238 | 76 | 22:01:00 | 75 | 22:50:03 | 75 | 95 | 22:52:03 | 91 | 22:00:01 | 94.7 | 0 | |||||||
| 08/27/2026 | 0:00:00 | 239 | 75 | 23:00:01 | 74 | 23:54:04 | 75 | 96 | 23:41:01 | 95 | 23:00:05 | 95.5 | 0 | |||||||
| 08/27/2026 | 1:00:00 | 239 | 75 | 0:15:05 | 74 | 0:59:04 | 74 | 97 | 0:59:05 | 95 | 0:16:00 | 97.3 | 0 | |||||||
| 08/27/2026 | 2:00:00 | 239 | 74 | 1:03:03 | 73 | 1:59:02 | 73 | 98 | 1:39:04 | 97 | 1:00:01 | 98.3 | 0 | |||||||
| 08/27/2026 | 3:00:00 | 239 | 73 | 2:00:01 | 71 | 2:55:03 | 72 | 99 | 2:59:04 | 98 | 2:05:05 | 99.2 | 0 | |||||||
| 08/27/2026 | 4:00:00 | 239 | 72 | 3:00:01 | 71 | 4:00:00 | 71 | 100 | 3:52:01 | 99 | 3:09:05 | 99.5 | 0 | |||||||
| 08/27/2026 | 5:00:00 | 239 | 71 | 4:00:01 | 70 | 5:00:00 | 70 | 100 | 4:30:05 | 100 | 4:00:05 | 99.6 | 0 | |||||||
| 08/27/2026 | 6:00:00 | 239 | 70 | 6:00:00 | 69 | 5:39:00 | 70 | 100 | 5:47:05 | 100 | 5:04:03 | 100 | 0 | |||||||
| 08/27/2026 | 7:00:00 | 239 | 75 | 6:57:00 | 70 | 6:00:01 | 75 | 100 | 6:00:01 | 100 | 7:00:00 | 99.9 | 0 | |||||||
| 08/27/2026 | 8:00:00 | 239 | 81 | 7:57:03 | 75 | 7:00:04 | 80 | 100 | 7:03:01 | 86 | 7:59:00 | 87.5 | 0 | |||||||
| 08/27/2026 | 9:00:00 | 239 | 86 | 8:59:03 | 80 | 8:03:04 | 86 | 90 | 8:05:05 | 74 | 8:59:05 | 75.17 | 0 | |||||||
| 08/27/2026 | 10:00:00 | 239 | 90 | 10:00:00 | 85 | 9:04:00 | 90 | 79 | 9:04:05 | 66 | 9:52:05 | 69.22 | 0 | |||||||
| 08/27/2026 | 11:00:00 | 239 | 91 | 11:00:00 | 89 | 10:35:03 | 91 | 69 | 10:00:05 | 61 | 10:58:03 | 61.08 | 0 | |||||||
| 08/27/2026 | 12:00:00 | 239 | 93 | 11:50:03 | 89 | 11:11:00 | 92 | 65 | 11:37:05 | 54 | 11:56:04 | 56.92 | 0 | |||||||
| 08/27/2026 | 13:00:00 | 239 | 95 | 12:57:01 | 92 | 12:04:04 | 95 | 60 | 12:19:02 | 49 | 12:53:03 | 50.35 | 0 | |||||||
| 08/27/2026 | 14:00:00 | 239 | 96 | 13:48:02 | 93 | 13:04:05 | 94 | 55 | 13:05:02 | 45 | 13:48:03 | 48.4 | 0 | |||||||
| 08/27/2026 | 15:00:00 | 239 | 97 | 14:30:00 | 94 | 14:43:04 | 95 | 50 | 14:06:02 | 41 | 14:30:03 | 44.63 | 0 | |||||||
| 08/27/2026 | 16:00:00 | 239 | 95 | 15:28:05 | 93 | 15:09:04 | 95 | 50 | 15:10:04 | 43 | 15:34:05 | 45.18 | 0 | |||||||
| 08/27/2026 | 17:00:00 | 239 | 95 | 16:09:03 | 92 | 16:30:01 | 93 | 50 | 16:25:02 | 43 | 16:38:02 | 47.31 | 0 | |||||||
| 08/27/2026 | 18:00:00 | 239 | 93 | 17:00:01 | 87 | 17:59:04 | 87 | 59 | 17:59:01 | 47 | 17:00:02 | 57.92 | 0 | |||||||
| 08/27/2026 | 19:00:00 | 239 | 87 | 18:00:05 | 79 | 18:59:04 | 79 | 81 | 19:00:00 | 58 | 18:00:02 | 81.1 | 0 | |||||||
| 08/27/2026 | 20:00:00 | 239 | 85 | 19:59:03 | 78 | 19:10:05 | 84 | 82 | 19:09:01 | 59 | 19:59:05 | 59.54 | 0 | |||||||
| 08/27/2026 | 21:00:00 | 239 | 85 | 20:01:01 | 78 | 21:00:00 | 78 | 75 | 21:00:00 | 59 | 20:01:02 | 74.85 | 0 | |||||||
| 08/27/2026 | 22:00:00 | 239 | 78 | 21:00:01 | 73 | 22:00:00 | 73 | 90 | 22:00:00 | 75 | 21:00:01 | 89.8 | 0 | |||||||
| 08/27/2026 | 23:00:00 | 239 | 73 | 22:00:02 | 70 | 22:59:05 | 70 | 95 | 22:58:03 | 90 | 22:00:01 | 94.9 | 0 | |||||||
| 08/28/2026 | 0:00:00 | 240 | 70 | 23:00:01 | 70 | 23:58:00 | 70 | 97 | 23:53:03 | 95 | 23:00:05 | 96.7 | 0 | |||||||
| 08/28/2026 | 1:00:00 | 240 | 70 | 0:00:05 | 67 | 0:59:05 | 67 | 98 | 0:57:00 | 97 | 0:39:03 | 97.8 | 0 | |||||||
| 08/28/2026 | 2:00:00 | 240 | 69 | 1:58:02 | 67 | 1:08:03 | 69 | 99 | 1:41:01 | 98 | 1:03:03 | 99 | 0 | |||||||
| 08/28/2026 | 3:00:00 | 240 | 69 | 2:00:01 | 68 | 2:58:01 | 68 | 99 | 2:00:02 | 99 | 2:36:00 | 98.7 | 0 | |||||||
| 08/28/2026 | 4:00:00 | 240 | 68 | 3:05:00 | 66 | 3:40:03 | 67 | 100 | 4:00:00 | 99 | 3:23:03 | 99.5 | 0 | |||||||
| 08/28/2026 | 5:00:00 | 240 | 67 | 4:01:05 | 66 | 4:23:00 | 66 | 100 | 4:51:01 | 99 | 4:21:01 | 99.6 | 0 | |||||||
| 08/28/2026 | 6:00:00 | 240 | 67 | 6:00:00 | 65 | 5:05:05 | 67 | 100 | 5:22:04 | 100 | 5:05:01 | 99.6 | 0 | |||||||
| 08/28/2026 | 7:00:00 | 240 | 75 | 6:58:05 | 67 | 6:00:02 | 75 | 100 | 6:00:01 | 83 | 6:59:05 | 82.8 | 0 | |||||||
| 08/28/2026 | 8:00:00 | 240 | 82 | 7:59:05 | 75 | 7:00:01 | 82 | 85 | 7:01:04 | 65 | 7:56:01 | 67.68 | 0 | |||||||
| 08/28/2026 | 9:00:00 | 240 | 86 | 8:58:01 | 82 | 8:05:03 | 86 | 68 | 8:13:00 | 56 | 8:56:01 | 56.93 | 0 | |||||||
| 08/28/2026 | 10:00:00 | 240 | 89 | 9:49:00 | 85 | 9:04:00 | 88 | 60 | 9:04:02 | 48 | 9:51:04 | 51.33 | 0 | |||||||
| 08/28/2026 | 11:00:00 | 240 | 90 | 10:51:05 | 87 | 10:01:02 | 90 | 52 | 10:00:01 | 45 | 10:37:00 | 46.11 | 0 | |||||||
| 08/28/2026 | 12:00:00 | 240 | 92 | 11:23:04 | 89 | 11:29:00 | 91 | 49 | 11:01:05 | 40 | 11:51:04 | 42.47 | 0 | |||||||
| 08/28/2026 | 13:00:00 | 240 | 93 | 12:35:02 | 90 | 12:18:01 | 92 | 47 | 12:28:00 | 36 | 12:53:03 | 37.13 | 0 | |||||||
| 08/28/2026 | 14:00:00 | 240 | 93 | 13:19:04 | 91 | 13:43:01 | 92 | 43 | 13:04:05 | 35 | 13:19:05 | 35.62 | 0 | |||||||
| 08/28/2026 | 15:00:00 | 240 | 93 | 14:46:00 | 91 | 14:08:05 | 92 | 41 | 14:23:02 | 34 | 14:52:02 | 34.84 | 0 | |||||||
| 08/28/2026 | 16:00:00 | 240 | 93 | 15:03:05 | 91 | 15:53:05 | 91 | 42 | 15:15:03 | 34 | 15:23:05 | 39.05 | 0 | |||||||
| 08/28/2026 | 17:00:00 | 240 | 92 | 16:02:03 | 90 | 16:26:01 | 91 | 43 | 16:54:00 | 36 | 16:14:00 | 41.24 | 0 | |||||||
| 08/28/2026 | 18:00:00 | 240 | 91 | 17:00:01 | 85 | 17:59:05 | 85 | 56 | 17:59:05 | 41 | 17:04:02 | 55.2 | 0 | |||||||
| 08/28/2026 | 19:00:00 | 240 | 85 | 18:00:01 | 74 | 18:59:04 | 74 | 79 | 18:59:05 | 55 | 18:00:01 | 79.37 | 0 | |||||||
| 08/28/2026 | 20:00:00 | 240 | 74 | 19:00:01 | 70 | 20:00:00 | 70 | 88 | 20:00:00 | 79 | 19:02:00 | 87.6 | 0 | |||||||
| 08/28/2026 | 21:00:00 | 240 | 70 | 20:00:01 | 67 | 20:59:05 | 67 | 93 | 21:00:00 | 88 | 20:00:01 | 93.2 | 0 | |||||||
| 08/28/2026 | 22:00:00 | 240 | 67 | 21:00:01 | 66 | 22:00:00 | 66 | 97 | 21:57:03 | 93 | 21:01:00 | 96.5 | 0 | |||||||
| 08/28/2026 | 23:00:00 | 240 | 66 | 22:32:02 | 64 | 22:59:03 | 64 | 98 | 22:27:03 | 96 | 22:06:03 | 96.9 | 0 | |||||||
| 08/29/2026 | 0:00:00 | 241 | 65 | 23:08:03 | 64 | 23:24:00 | 64 | 99 | 23:48:00 | 97 | 23:00:01 | 98.7 | 0 | |||||||
| 08/29/2026 | 1:00:00 | 241 | 64 | 0:00:01 | 62 | 1:00:00 | 62 | 99 | 0:52:03 | 98 | 0:08:03 | 99 | 0 | |||||||
| 08/29/2026 | 2:00:00 | 241 | 63 | 1:26:03 | 61 | 1:48:04 | 61 | 100 | 1:54:01 | 99 | 1:01:00 | 99.6 | 0 | |||||||
| 08/29/2026 | 3:00:00 | 241 | 62 | 2:36:01 | 61 | 2:20:04 | 61 | 100 | 2:35:05 | 100 | 2:04:00 | 99.7 | 0 | |||||||
| 08/29/2026 | 4:00:00 | 241 | 61 | 3:00:01 | 59 | 3:59:02 | 59 | 100 | 3:13:03 | 100 | 3:01:02 | 100 | 0 | |||||||
| 08/29/2026 | 5:00:00 | 241 | 60 | 4:21:02 | 58 | 4:55:04 | 59 | 100 | 4:00:02 | 100 | 4:26:04 | 100 | 0 | |||||||
| 08/29/2026 | 6:00:00 | 241 | 60 | 6:00:00 | 58 | 5:46:00 | 60 | 100 | 5:00:01 | 100 | 5:00:01 | 100 | 0 | |||||||
| 08/29/2026 | 7:00:00 | 241 | 70 | 7:00:00 | 60 | 6:00:01 | 70 | 100 | 6:00:01 | 88 | 6:45:04 | 89.7 | 0 | |||||||
| 08/29/2026 | 8:00:00 | 241 | 83 | 8:00:00 | 70 | 7:00:02 | 83 | 91 | 7:00:03 | 68 | 7:58:05 | 71.03 | 0 | |||||||
| 08/29/2026 | 9:00:00 | 241 | 87 | 8:54:00 | 83 | 8:00:01 | 86 | 72 | 8:00:02 | 50 | 8:58:00 | 51.07 | 0 | |||||||
| 08/29/2026 | 10:00:00 | 241 | 89 | 9:54:03 | 86 | 9:02:04 | 89 | 53 | 9:01:03 | 37 | 9:57:01 | 40.13 | 0 | |||||||
| 08/29/2026 | 11:00:00 | 241 | 92 | 10:57:00 | 88 | 10:07:01 | 92 | 42 | 10:26:03 | 34 | 10:20:01 | 36.1 | 0 | |||||||
| 08/29/2026 | 12:00:00 | 241 | 92 | 11:03:01 | 90 | 11:13:02 | 92 | 42 | 11:55:03 | 34 | 11:47:03 | 36.76 | 0 | |||||||
| 08/29/2026 | 13:00:00 | 241 | 95 | 12:59:03 | 91 | 12:01:05 | 95 | 39 | 12:02:00 | 30 | 12:57:02 | 32.9 | 0 | |||||||
| 08/29/2026 | 14:00:00 | 241 | 95 | 13:34:01 | 93 | 13:18:04 | 94 | 38 | 13:31:03 | 28 | 13:44:00 | 28.98 | 0 | |||||||
| 08/29/2026 | 15:00:00 | 241 | 97 | 14:33:03 | 94 | 14:00:04 | 96 | 35 | 14:27:00 | 27 | 14:40:05 | 28.87 | 0 | |||||||
| 08/29/2026 | 16:00:00 | 241 | 96 | 15:43:01 | 94 | 15:30:01 | 96 | 35 | 15:42:03 | 28 | 15:00:02 | 30.98 | 0 | |||||||
| 08/29/2026 | 17:00:00 | 241 | 97 | 16:00:05 | 95 | 16:58:04 | 95 | 36 | 16:59:04 | 29 | 16:00:05 | 32.33 | 0 | |||||||
| 08/29/2026 | 18:00:00 | 241 | 95 | 17:02:04 | 85 | 18:00:00 | 85 | 58 | 17:55:03 | 32 | 17:00:01 | 58.06 | 0 | |||||||
| 08/29/2026 | 19:00:00 | 241 | 85 | 18:00:03 | 73 | 19:00:00 | 73 | 81 | 18:58:02 | 58 | 18:00:01 | 79.97 | 0 | |||||||
| 08/29/2026 | 20:00:00 | 241 | 73 | 19:00:01 | 69 | 19:56:00 | 69 | 92 | 19:57:02 | 80 | 19:00:01 | 91.3 | 0 | |||||||
| 08/29/2026 | 21:00:00 | 241 | 69 | 20:02:05 | 67 | 20:32:04 | 67 | 96 | 20:44:04 | 91 | 20:12:03 | 93.9 | 0 | |||||||
| 08/29/2026 | 22:00:00 | 241 | 67 | 21:00:01 | 65 | 21:55:02 | 65 | 98 | 21:42:01 | 94 | 21:00:01 | 97.9 | 0 | |||||||
| 08/29/2026 | 23:00:00 | 241 | 66 | 22:03:01 | 64 | 22:44:02 | 64 | 99 | 22:49:05 | 98 | 22:00:01 | 99 | 0 | |||||||
| 08/30/2026 | 0:00:00 | 242 | 65 | 23:16:04 | 64 | 23:26:05 | 64 | 99 | 23:16:03 | 99 | 23:26:05 | 98.9 | 0 | |||||||
| 08/30/2026 | 1:00:00 | 242 | 65 | 0:07:01 | 64 | 0:38:03 | 64 | 100 | 0:40:01 | 99 | 0:00:04 | 99.1 | 0 | |||||||
| 08/30/2026 | 2:00:00 | 242 | 64 | 1:31:04 | 64 | 1:13:01 | 64 | 100 | 1:45:02 | 99 | 1:02:01 | 99.6 | 0 | |||||||
| 08/30/2026 | 3:00:00 | 242 | 65 | 2:52:05 | 64 | 2:27:00 | 64 | 100 | 2:52:03 | 99 | 2:25:03 | 99.7 | 0 | |||||||
| 08/30/2026 | 4:00:00 | 242 | 64 | 3:34:01 | 64 | 3:54:02 | 64 | 100 | 3:33:05 | 100 | 3:02:04 | 99.7 | 0 | |||||||
| 08/30/2026 | 5:00:00 | 242 | 64 | 4:58:05 | 63 | 4:06:03 | 64 | 100 | 4:58:04 | 100 | 4:06:03 | 99.9 | 0 | |||||||
| 08/30/2026 | 6:00:00 | 242 | 66 | 5:59:05 | 64 | 5:10:02 | 66 | 100 | 5:23:02 | 100 | 5:01:04 | 100 | 0 | |||||||
| 08/30/2026 | 7:00:00 | 242 | 75 | 6:59:01 | 66 | 6:00:01 | 75 | 100 | 6:00:01 | 82 | 7:00:00 | 82.3 | 0 | |||||||
| 08/30/2026 | 8:00:00 | 242 | 83 | 7:59:05 | 75 | 7:00:01 | 83 | 84 | 7:00:05 | 71 | 7:58:04 | 71.05 | 0 | |||||||
| 08/30/2026 | 9:00:00 | 242 | 89 | 8:58:04 | 82 | 8:03:03 | 89 | 74 | 8:04:02 | 60 | 8:59:01 | 63.11 | 0 | |||||||
| 08/30/2026 | 10:00:00 | 242 | 93 | 10:00:00 | 89 | 9:00:01 | 93 | 64 | 9:01:02 | 55 | 9:59:04 | 56 | 0 | |||||||
| 08/30/2026 | 11:00:00 | 242 | 95 | 10:50:03 | 92 | 10:03:04 | 94 | 59 | 10:04:05 | 50 | 10:48:00 | 53.64 | 0 | |||||||
| 08/30/2026 | 12:00:00 | 242 | 97 | 11:47:02 | 93 | 11:04:01 | 95 | 56 | 11:04:02 | 47 | 11:47:04 | 48.74 | 0 | |||||||
| 08/30/2026 | 13:00:00 | 242 | 99 | 12:19:00 | 94 | 12:31:05 | 97 | 52 | 12:07:00 | 44 | 12:20:02 | 46.86 | 0 | |||||||
| 08/30/2026 | 14:00:00 | 242 | 100 | 13:50:05 | 96 | 13:07:01 | 98 | 49 | 13:07:04 | 42 | 13:58:05 | 42.64 | 0 | |||||||
| 08/30/2026 | 15:00:00 | 242 | 101 | 14:21:05 | 95 | 14:47:04 | 96 | 49 | 14:08:01 | 41 | 14:16:05 | 46.35 | 0 | |||||||
| 08/30/2026 | 16:00:00 | 242 | 98 | 15:11:04 | 93 | 15:57:04 | 94 | 54 | 15:58:00 | 44 | 15:10:05 | 52.12 | 0 | |||||||
| 08/30/2026 | 17:00:00 | 242 | 95 | 16:54:01 | 92 | 16:25:01 | 95 | 55 | 16:42:00 | 50 | 16:04:04 | 52.21 | 0 | |||||||
| 08/30/2026 | 18:00:00 | 242 | 95 | 17:02:04 | 90 | 18:00:00 | 90 | 59 | 18:00:00 | 51 | 17:03:01 | 59.17 | 0 | |||||||
| 08/30/2026 | 19:00:00 | 242 | 90 | 18:00:01 | 81 | 19:00:00 | 81 | 85 | 18:51:00 | 59 | 18:00:01 | 83.3 | 0 | |||||||
| 08/30/2026 | 20:00:00 | 242 | 81 | 19:00:01 | 77 | 19:59:04 | 77 | 91 | 19:34:01 | 83 | 19:00:01 | 90.3 | 0 | |||||||
| 08/30/2026 | 21:00:00 | 242 | 77 | 20:00:01 | 75 | 20:57:02 | 75 | 95 | 21:00:00 | 90 | 20:09:05 | 94.9 | 0 | |||||||
| 08/30/2026 | 22:00:00 | 242 | 75 | 21:02:04 | 73 | 21:53:05 | 74 | 98 | 22:00:00 | 95 | 21:06:03 | 97.7 | 0 | |||||||
| 08/30/2026 | 23:00:00 | 242 | 74 | 22:00:01 | 72 | 22:54:03 | 72 | 99 | 22:58:01 | 97 | 22:08:02 | 98.6 | 0 | |||||||
| 08/31/2026 | 0:00:00 | 243 | 72 | 23:00:01 | 71 | 23:52:00 | 71 | 100 | 0:00:00 | 98 | 23:05:01 | 99.6 | 0 | |||||||
| 08/31/2026 | 1:00:00 | 243 | 71 | 0:13:04 | 70 | 0:44:05 | 71 | 100 | 0:49:02 | 99 | 0:10:01 | 100 | 0 | |||||||
| 08/31/2026 | 2:00:00 | 243 | 71 | 1:00:02 | 70 | 1:32:01 | 70 | 100 | 1:00:01 | 100 | 1:10:03 | 100 | 0 | |||||||
| 08/31/2026 | 3:00:00 | 243 | 70 | 2:05:05 | 68 | 3:00:00 | 68 | 100 | 2:00:01 | 100 | 2:00:01 | 100 | 0 | |||||||
| 08/31/2026 | 4:00:00 | 243 | 68 | 3:18:01 | 67 | 3:09:01 | 68 | 100 | 3:00:01 | 100 | 3:00:01 | 100 | 0 | |||||||
| 08/31/2026 | 5:00:00 | 243 | 69 | 4:20:04 | 68 | 4:28:04 | 68 | 100 | 4:00:01 | 100 | 4:00:01 | 100 | 0 | |||||||
| 08/31/2026 | 6:00:00 | 243 | 69 | 6:00:00 | 67 | 5:05:04 | 69 | 100 | 5:00:01 | 100 | 5:00:01 | 100 | 0 | |||||||
| 08/31/2026 | 7:00:00 | 243 | 78 | 7:00:00 | 69 | 6:00:02 | 78 | 100 | 6:00:01 | 88 | 6:59:01 | 88.2 | 0 | |||||||
| 08/31/2026 | 8:00:00 | 243 | 86 | 8:00:00 | 78 | 7:00:01 | 86 | 88 | 7:00:05 | 71 | 7:50:01 | 72.57 | 0 | |||||||
| Average | 81.53 | 78.31 | 79.94 | 80.68 | 73.4 | 76.81 | 0 | 0 | 0 | 0 | 0 | 0 | 0 | |||||||
| Total | 0 |